createdAt,value
2023-03-06T00:01:03.651Z,98878.63
2023-03-06T00:03:56.236Z,98882.76
2023-03-06T00:06:47.319Z,98880.23
2023-03-06T00:09:39.616Z,98876.77
2023-03-06T00:12:24.573Z,98877.46
2023-03-06T00:15:15.521Z,98874.80
2023-03-06T00:18:04.166Z,98879.05
2023-03-06T00:20:56.434Z,98881.40
2023-03-06T00:23:42.177Z,98877.77
2023-03-06T00:26:17.369Z,98880.52
2023-03-06T00:29:00.832Z,98880.63
2023-03-06T00:31:51.588Z,98880.59
2023-03-06T00:34:37.932Z,98884.01
2023-03-06T00:37:15.115Z,98882.06
2023-03-06T00:40:11.294Z,98872.76
2023-03-06T00:43:03.603Z,98870.98
2023-03-06T00:45:50.100Z,98864.18
2023-03-06T00:48:42.257Z,98863.81
2023-03-06T00:51:34.587Z,98860.45
2023-03-06T00:54:19.481Z,98857.95
2023-03-06T00:57:03.285Z,98853.60
2023-03-06T00:59:54.040Z,98848.85
2023-03-06T01:02:37.044Z,98841.09
2023-03-06T01:05:27.827Z,98843.02
2023-03-06T01:08:20.192Z,98837.64
2023-03-06T01:11:12.578Z,98839.40
2023-03-06T01:13:53.388Z,98841.68
2023-03-06T01:16:36.014Z,98840.79
2023-03-06T01:19:28.365Z,98839.52
2023-03-06T01:22:05.412Z,98839.74
2023-03-06T01:24:57.647Z,98839.85
2023-03-06T01:27:50.013Z,98838.80
2023-03-06T01:30:35.917Z,98835.59
2023-03-06T01:33:28.220Z,98834.45
2023-03-06T01:36:19.095Z,98831.00
2023-03-06T01:39:05.107Z,98828.10
2023-03-06T01:41:57.355Z,98823.91
2023-03-06T01:45:04.322Z,98825.41
2023-03-06T01:47:50.029Z,98821.66
2023-03-06T01:50:42.651Z,98818.30
2023-03-06T01:53:35.208Z,98815.47
2023-03-06T01:56:28.011Z,98814.98
2023-03-06T01:59:04.416Z,98816.23
2023-03-06T02:01:42.707Z,98817.46
2023-03-06T02:04:36.245Z,98814.54
2023-03-06T02:07:23.842Z,98809.88
2023-03-06T02:10:11.271Z,98810.98
2023-03-06T02:13:03.867Z,98809.35
2023-03-06T02:15:50.161Z,98805.94
2023-03-06T02:18:31.492Z,98802.19
2023-03-06T02:21:27.149Z,98796.59
2023-03-06T02:24:15.778Z,98796.23
2023-03-06T02:27:04.459Z,98791.53
2023-03-06T02:29:41.516Z,98786.23
2023-03-06T02:32:34.088Z,98783.62
2023-03-06T02:35:26.215Z,98781.00
2023-03-06T02:38:17.201Z,98782.52
2023-03-06T02:41:10.777Z,98779.54
2023-03-06T02:44:03.242Z,98775.05
2023-03-06T02:46:55.478Z,98773.58
2023-03-06T02:49:47.814Z,98770.29
2023-03-06T02:52:33.718Z,98773.00
2023-03-06T02:55:22.570Z,98770.92
2023-03-06T02:58:08.254Z,98765.80
2023-03-06T03:00:45.536Z,98762.68
2023-03-06T03:03:36.713Z,98765.68
2023-03-06T03:06:29.073Z,98774.10
2023-03-06T03:09:21.612Z,98771.48
2023-03-06T03:12:14.471Z,98776.03
2023-03-06T03:14:56.944Z,98773.12
2023-03-06T03:17:29.674Z,98762.95
2023-03-06T03:20:17.744Z,98762.46
2023-03-06T03:23:10.052Z,98764.02
2023-03-06T03:26:10.927Z,98753.50
2023-03-06T03:29:04.747Z,98749.48
2023-03-06T03:31:51.528Z,98751.75
2023-03-06T03:34:42.255Z,98752.73
2023-03-06T03:37:34.778Z,98753.70
2023-03-06T03:40:25.404Z,98737.59
2023-03-06T03:43:17.655Z,98735.21
2023-03-06T03:46:03.763Z,98731.64
2023-03-06T03:48:47.085Z,98732.33
2023-03-06T03:51:39.509Z,98732.91
2023-03-06T03:54:30.303Z,98725.60
2023-03-06T03:57:22.205Z,98719.42
2023-03-06T04:00:17.177Z,98712.44
2023-03-06T04:03:05.817Z,98706.75
2023-03-06T04:05:58.313Z,98703.58
2023-03-06T04:08:49.133Z,98700.98
2023-03-06T04:11:40.172Z,98701.05
2023-03-06T04:14:25.167Z,98698.00
2023-03-06T04:17:17.415Z,98695.80
2023-03-06T04:19:54.912Z,98698.80
2023-03-06T04:22:41.261Z,98698.24
2023-03-06T04:25:33.200Z,98700.48
2023-03-06T04:28:09.734Z,98697.60
2023-03-06T04:31:02.183Z,98697.11
2023-03-06T04:33:53.230Z,98692.45
2023-03-06T04:36:36.775Z,98695.51
2023-03-06T04:39:27.887Z,98692.46
2023-03-06T04:42:04.828Z,98690.36
2023-03-06T04:44:57.286Z,98685.71
2023-03-06T04:47:40.795Z,98679.84
2023-03-06T04:50:32.753Z,98676.23
2023-03-06T04:53:21.400Z,98673.86
2023-03-06T04:55:56.223Z,98669.66
2023-03-06T04:58:42.549Z,98675.45
2023-03-06T05:01:34.741Z,98673.16
2023-03-06T05:04:18.024Z,98672.92
2023-03-06T05:07:10.909Z,98673.47
2023-03-06T05:10:03.260Z,98675.73
2023-03-06T05:12:55.728Z,98676.86
2023-03-06T05:15:46.543Z,98670.31
2023-03-06T05:18:39.135Z,98668.27
2023-03-06T05:21:29.858Z,98669.62
2023-03-06T05:24:22.236Z,98663.13
2023-03-06T05:27:14.595Z,98661.39
2023-03-06T05:30:12.584Z,98657.85
2023-03-06T05:33:04.889Z,98654.06
2023-03-06T05:35:50.944Z,98652.77
2023-03-06T05:38:34.638Z,98650.09
2023-03-06T05:41:27.007Z,98655.83
2023-03-06T05:44:19.244Z,98655.41
2023-03-06T05:47:12.138Z,98653.39
2023-03-06T05:50:02.463Z,98646.95
2023-03-06T05:52:40.808Z,98648.09
2023-03-06T05:55:32.228Z,98642.92
2023-03-06T05:58:29.266Z,98647.24
2023-03-06T06:01:15.513Z,98642.98
2023-03-06T06:03:52.824Z,98643.67
2023-03-06T06:06:29.714Z,98645.73
2023-03-06T06:09:22.434Z,98647.63
2023-03-06T06:12:15.601Z,98646.82
2023-03-06T06:14:51.387Z,98646.15
2023-03-06T06:17:26.821Z,98646.56
2023-03-06T06:20:12.569Z,98643.17
2023-03-06T06:22:47.956Z,98643.20
2023-03-06T06:25:40.415Z,98640.09
2023-03-06T06:28:25.277Z,98641.60
2023-03-06T06:31:14.744Z,98644.98
2023-03-06T06:34:08.481Z,98639.35
2023-03-06T06:37:00.880Z,98643.12
2023-03-06T06:39:53.429Z,98641.09
2023-03-06T06:42:47.271Z,98647.08
2023-03-06T06:45:39.782Z,98646.00
2023-03-06T06:48:19.440Z,98644.74
2023-03-06T06:51:12.112Z,98649.52
2023-03-06T06:54:04.782Z,98650.09
2023-03-06T06:56:57.199Z,98649.41
2023-03-06T06:59:48.131Z,98650.09
2023-03-06T07:02:40.436Z,98651.33
2023-03-06T07:05:32.959Z,98650.36
2023-03-06T07:08:17.667Z,98649.63
2023-03-06T07:11:12.487Z,98648.59
2023-03-06T07:13:57.103Z,98645.80
2023-03-06T07:16:49.544Z,98651.25
2023-03-06T07:19:41.839Z,98651.02
2023-03-06T07:22:25.488Z,98651.73
2023-03-06T07:25:17.995Z,98649.73
2023-03-06T07:28:08.756Z,98653.56
2023-03-06T07:31:01.229Z,98653.30
2023-03-06T07:33:53.362Z,98660.11
2023-03-06T07:36:40.519Z,98659.70
2023-03-06T07:39:32.911Z,98663.91
2023-03-06T07:42:11.387Z,98662.38
2023-03-06T07:44:50.920Z,98661.58
2023-03-06T07:47:36.162Z,98668.58
2023-03-06T07:50:28.738Z,98672.46
2023-03-06T07:53:12.106Z,98668.45
2023-03-06T07:55:57.764Z,98672.09
2023-03-06T07:58:49.170Z,98669.66
2023-03-06T08:01:42.034Z,98673.43
2023-03-06T08:04:19.865Z,98674.36
2023-03-06T08:07:10.596Z,98670.85
2023-03-06T08:10:03.279Z,98667.96
2023-03-06T08:12:37.765Z,98671.80
2023-03-06T08:15:22.510Z,98670.50
2023-03-06T08:18:14.906Z,98663.38
2023-03-06T08:20:52.265Z,98666.21
2023-03-06T08:23:45.102Z,98657.33
2023-03-06T08:26:21.431Z,98659.05
2023-03-06T08:29:04.257Z,98654.83
2023-03-06T08:31:56.739Z,98657.27
2023-03-06T08:34:47.533Z,98658.53
2023-03-06T08:37:38.375Z,98654.98
2023-03-06T08:40:31.179Z,98657.50
2023-03-06T08:43:23.524Z,98659.54
2023-03-06T08:46:16.006Z,98660.77
2023-03-06T08:48:59.611Z,98662.98
2023-03-06T08:51:53.074Z,98666.91
2023-03-06T08:54:37.524Z,98668.77
2023-03-06T08:57:20.771Z,98667.84
2023-03-06T09:00:15.544Z,98663.71
2023-03-06T09:03:08.139Z,98668.33
2023-03-06T09:06:03.661Z,98666.08
2023-03-06T09:08:55.420Z,98665.54
2023-03-06T09:11:48.352Z,98665.78
2023-03-06T09:14:23.673Z,98662.16
2023-03-06T09:17:14.900Z,98661.45
2023-03-06T09:20:10.604Z,98662.27
2023-03-06T09:22:46.033Z,98655.77
2023-03-06T09:25:38.652Z,98655.67
2023-03-06T09:28:22.163Z,98654.62
2023-03-06T09:30:59.466Z,98653.30
2023-03-06T09:33:52.165Z,98650.97
2023-03-06T09:36:49.311Z,98646.48
2023-03-06T09:39:31.397Z,98644.77
2023-03-06T09:42:03.696Z,98641.08
2023-03-06T09:44:52.762Z,98638.35
2023-03-06T09:47:50.438Z,98634.55
2023-03-06T09:50:42.848Z,98628.30
2023-03-06T09:53:50.827Z,98626.44
2023-03-06T09:56:31.147Z,98620.13
2023-03-06T09:59:18.726Z,98617.91
2023-03-06T10:01:55.458Z,98614.39
2023-03-06T10:04:41.626Z,98614.30
2023-03-06T10:07:24.401Z,98615.52
2023-03-06T10:10:01.010Z,98612.52
2023-03-06T10:12:38.806Z,98610.23
2023-03-06T10:15:36.180Z,98611.41
2023-03-06T10:18:08.946Z,98611.56
2023-03-06T10:20:54.674Z,98608.94
2023-03-06T10:23:55.700Z,98605.12
2023-03-06T10:26:44.663Z,98601.66
2023-03-06T10:30:01.655Z,98599.79
2023-03-06T10:32:50.337Z,98595.61
2023-03-06T10:35:31.092Z,98593.90
2023-03-06T10:38:19.517Z,98592.07
2023-03-06T10:41:25.475Z,98593.34
2023-03-06T10:44:26.835Z,98592.70
2023-03-06T10:47:35.372Z,98586.02
2023-03-06T10:50:28.990Z,98585.73
2023-03-06T10:53:23.639Z,98585.16
2023-03-06T10:56:07.353Z,98582.15
2023-03-06T10:59:13.622Z,98576.61
2023-03-06T11:01:52.748Z,98572.23
2023-03-06T11:04:30.745Z,98567.98
2023-03-06T11:07:19.405Z,98567.75
2023-03-06T11:10:19.146Z,98566.95
2023-03-06T11:13:06.289Z,98566.96
2023-03-06T11:15:38.903Z,98564.23
2023-03-06T11:18:36.005Z,98565.69
2023-03-06T11:21:32.435Z,98559.91
2023-03-06T11:24:16.745Z,98562.45
2023-03-06T11:26:55.574Z,98556.41
2023-03-06T11:29:44.762Z,98557.25
2023-03-06T11:32:46.863Z,98556.42
2023-03-06T11:35:24.839Z,98552.67
2023-03-06T11:38:17.187Z,98551.08
2023-03-06T11:41:04.495Z,98547.90
2023-03-06T11:43:47.870Z,98542.54
2023-03-06T11:46:45.271Z,98541.36
2023-03-06T11:49:33.345Z,98534.23
2023-03-06T11:52:28.663Z,98526.44
2023-03-06T11:55:35.656Z,98523.33
2023-03-06T11:58:54.816Z,98520.08
2023-03-06T12:02:06.740Z,98511.09
2023-03-06T12:05:10.277Z,98508.64
2023-03-06T12:08:16.262Z,98509.33
2023-03-06T12:14:15.659Z,98499.14
2023-03-06T12:17:23.798Z,98491.04
2023-03-06T12:20:41.528Z,98494.09
2023-03-06T12:23:29.942Z,98495.44
2023-03-06T12:26:38.210Z,98487.50
2023-03-06T12:29:36.133Z,98487.16
2023-03-06T12:32:30.185Z,98484.20
2023-03-06T12:35:51.607Z,98476.56
2023-03-06T12:39:04.572Z,98481.38
2023-03-06T12:42:00.439Z,98480.10
2023-03-06T12:45:05.989Z,98477.48
2023-03-06T12:47:51.347Z,98476.64
2023-03-06T12:50:38.383Z,98475.31
2023-03-06T12:53:28.044Z,98477.20
2023-03-06T12:56:04.972Z,98472.57
2023-03-06T12:58:57.570Z,98469.10
2023-03-06T13:02:02.717Z,98465.05
2023-03-06T13:05:02.084Z,98462.51
2023-03-06T13:08:01.354Z,98462.15
2023-03-06T13:11:18.733Z,98452.61
2023-03-06T13:13:51.242Z,98451.63
2023-03-06T13:16:42.558Z,98453.80
2023-03-06T13:19:27.531Z,98448.88
2023-03-06T13:22:30.336Z,98446.81
2023-03-06T13:25:48.022Z,98444.69
2023-03-06T13:28:46.571Z,98442.14
2023-03-06T13:32:15.986Z,98437.98
2023-03-06T13:35:48.513Z,98431.55
2023-03-06T13:39:00.263Z,98437.34
2023-03-06T13:42:00.655Z,98437.79
2023-03-06T13:44:54.520Z,98434.52
2023-03-06T13:48:21.165Z,98438.08
2023-03-06T13:51:25.140Z,98435.23
2023-03-06T13:54:32.572Z,98431.69
2023-03-06T13:57:32.300Z,98431.99
2023-03-06T14:00:36.711Z,98434.41
2023-03-06T14:04:07.683Z,98440.13
2023-03-06T14:07:06.516Z,98441.12
2023-03-06T14:09:53.851Z,98440.83
2023-03-06T14:12:34.121Z,98441.77
2023-03-06T14:15:31.661Z,98443.35
2023-03-06T14:18:38.231Z,98446.48
2023-03-06T14:21:31.243Z,98441.23
2023-03-06T14:24:19.891Z,98438.48
2023-03-06T14:27:02.160Z,98432.50
2023-03-06T14:30:05.466Z,98433.89
2023-03-06T14:32:38.971Z,98432.59
2023-03-06T14:35:29.302Z,98431.41
2023-03-06T14:38:16.284Z,98432.77
2023-03-06T14:41:00.848Z,98430.13
2023-03-06T14:43:53.425Z,98430.30
2023-03-06T14:46:38.778Z,98433.20
2023-03-06T14:49:29.797Z,98433.06
2023-03-06T14:52:21.873Z,98436.41
2023-03-06T14:55:18.134Z,98437.70
2023-03-06T14:57:57.272Z,98437.19
2023-03-06T15:00:45.397Z,98439.48
2023-03-06T15:03:46.878Z,98441.73
2023-03-06T15:06:25.499Z,98440.44
2023-03-06T15:09:20.512Z,98437.70
2023-03-06T15:12:01.856Z,98432.23
2023-03-06T15:15:00.456Z,98424.80
2023-03-06T15:17:44.860Z,98425.80
2023-03-06T15:20:44.667Z,98427.86
2023-03-06T15:23:43.323Z,98424.55
2023-03-06T15:26:37.933Z,98428.46
2023-03-06T15:29:24.342Z,98426.88
2023-03-06T15:32:30.628Z,98429.02
2023-03-06T15:35:33.894Z,98427.63
2023-03-06T15:39:01.709Z,98427.50
2023-03-06T15:41:41.881Z,98428.98
2023-03-06T15:44:35.105Z,98429.27
2023-03-06T15:47:20.401Z,98433.29
2023-03-06T15:50:20.485Z,98428.35
2023-03-06T15:53:13.163Z,98431.78
2023-03-06T15:56:05.390Z,98423.59
2023-03-06T15:58:43.351Z,98424.52
2023-03-06T16:01:21.648Z,98425.17
2023-03-06T16:04:17.093Z,98418.61
2023-03-06T16:07:09.676Z,98423.23
2023-03-06T16:09:53.570Z,98424.68
2023-03-06T16:12:36.855Z,98428.81
2023-03-06T16:15:25.385Z,98430.64
2023-03-06T16:18:18.628Z,98433.02
2023-03-06T16:21:11.042Z,98432.52
2023-03-06T16:23:48.196Z,98429.41
2023-03-06T16:26:41.887Z,98427.34
2023-03-06T16:29:34.294Z,98426.02
2023-03-06T16:32:28.758Z,98422.73
2023-03-06T16:35:04.249Z,98426.20
2023-03-06T16:38:00.006Z,98429.62
2023-03-06T16:40:43.355Z,98427.59
2023-03-06T16:43:36.060Z,98426.59
2023-03-06T16:46:20.369Z,98425.90
2023-03-06T16:49:12.684Z,98422.95
2023-03-06T16:52:06.601Z,98422.40
2023-03-06T16:54:59.855Z,98424.42
2023-03-06T16:57:43.550Z,98427.28
2023-03-06T17:00:31.166Z,98429.98
2023-03-06T17:03:12.519Z,98432.53
2023-03-06T17:06:05.573Z,98437.85
2023-03-06T17:08:49.115Z,98440.84
2023-03-06T17:11:34.160Z,98445.49
2023-03-06T17:14:24.965Z,98445.42
2023-03-06T17:17:02.054Z,98450.30
2023-03-06T17:19:54.697Z,98447.66
2023-03-06T17:22:47.158Z,98445.36
2023-03-06T17:25:39.715Z,98446.02
2023-03-06T17:28:32.115Z,98444.70
2023-03-06T17:31:25.516Z,98446.57
2023-03-06T17:34:03.445Z,98447.61
2023-03-06T17:36:54.873Z,98450.84
2023-03-06T17:39:47.326Z,98452.83
2023-03-06T17:42:33.288Z,98454.01
2023-03-06T17:45:18.574Z,98455.87
2023-03-06T17:47:57.172Z,98456.20
2023-03-06T17:50:29.277Z,98453.54
2023-03-06T17:53:11.382Z,98453.83
2023-03-06T17:55:54.842Z,98456.73
2023-03-06T17:58:30.215Z,98452.82
2023-03-06T18:01:19.092Z,98454.52
2023-03-06T18:04:04.554Z,98457.86
2023-03-06T18:06:58.397Z,98458.89
2023-03-06T18:09:45.290Z,98457.52
2023-03-06T18:12:37.679Z,98455.42
2023-03-06T18:15:30.203Z,98455.15
2023-03-06T18:18:22.705Z,98454.79
2023-03-06T18:21:10.210Z,98452.36
2023-03-06T18:24:02.629Z,98454.59
2023-03-06T18:26:42.204Z,98456.44
2023-03-06T18:29:28.336Z,98457.27
2023-03-06T18:32:20.791Z,98463.42
2023-03-06T18:35:09.481Z,98464.20
2023-03-06T18:37:54.579Z,98468.33
2023-03-06T18:40:29.977Z,98467.77
2023-03-06T18:43:21.980Z,98466.93
2023-03-06T18:46:14.935Z,98468.64
2023-03-06T18:49:06.248Z,98467.56
2023-03-06T18:51:43.406Z,98471.15
2023-03-06T18:54:30.361Z,98472.55
2023-03-06T18:57:11.547Z,98473.18
2023-03-06T18:59:55.601Z,98474.20
2023-03-06T19:02:48.182Z,98472.77
2023-03-06T19:05:33.643Z,98472.79
2023-03-06T19:08:09.781Z,98472.18
2023-03-06T19:10:53.604Z,98468.48
2023-03-06T19:13:37.283Z,98464.41
2023-03-06T19:16:33.851Z,98464.98
2023-03-06T19:19:20.722Z,98459.14
2023-03-06T19:22:16.629Z,98460.70
2023-03-06T19:25:03.893Z,98458.73
2023-03-06T19:27:50.562Z,98462.83
2023-03-06T19:30:37.010Z,98461.34
2023-03-06T19:33:22.683Z,98465.81
2023-03-06T19:36:12.279Z,98466.45
2023-03-06T19:39:07.560Z,98464.29
2023-03-06T19:42:00.335Z,98466.05
2023-03-06T19:44:46.817Z,98465.52
2023-03-06T19:47:39.452Z,98463.94
2023-03-06T19:50:32.074Z,98463.79
2023-03-06T19:53:24.665Z,98463.99
2023-03-06T19:56:20.486Z,98462.95
2023-03-06T19:59:13.467Z,98465.61
2023-03-06T20:01:54.658Z,98463.27
2023-03-06T20:06:40.673Z,98459.27
2023-03-06T20:07:58.750Z,98464.60
2023-03-06T20:10:51.036Z,98469.51
2023-03-06T20:13:47.328Z,98472.61
2023-03-06T20:16:23.010Z,98472.00
2023-03-06T20:19:09.321Z,98478.04
2023-03-06T20:21:55.913Z,98479.56
2023-03-06T20:24:42.467Z,98478.09
2023-03-06T20:27:35.074Z,98479.12
2023-03-06T20:30:17.182Z,98479.92
2023-03-06T20:33:09.750Z,98479.61
2023-03-06T20:36:03.920Z,98479.48
2023-03-06T20:38:50.785Z,98481.23
2023-03-06T20:41:36.039Z,98478.70
2023-03-06T20:44:19.884Z,98478.46
2023-03-06T20:47:12.352Z,98479.70
2023-03-06T20:49:49.237Z,98482.98
2023-03-06T20:52:42.169Z,98483.38
2023-03-06T20:55:27.754Z,98481.16
2023-03-06T20:58:18.477Z,98483.82
2023-03-06T21:01:09.759Z,98481.23
2023-03-06T21:04:04.494Z,98481.59
2023-03-06T21:06:57.830Z,98475.98
2023-03-06T21:09:51.733Z,98472.83
2023-03-06T21:12:33.146Z,98468.64
2023-03-06T21:15:19.590Z,98467.50
2023-03-06T21:18:13.199Z,98468.42
2023-03-06T21:21:10.297Z,98463.41
2023-03-06T21:24:03.686Z,98462.51
2023-03-06T21:26:51.292Z,98464.00
2023-03-06T21:29:45.507Z,98459.52
2023-03-06T21:32:38.130Z,98463.23
2023-03-06T21:35:24.400Z,98461.52
2023-03-06T21:38:05.468Z,98459.95
2023-03-06T21:40:57.875Z,98457.83
2023-03-06T21:43:44.497Z,98462.52
2023-03-06T21:46:30.938Z,98460.61
2023-03-06T21:49:26.422Z,98456.06
2023-03-06T21:52:12.596Z,98456.60
2023-03-06T21:55:03.330Z,98459.98
2023-03-06T21:57:52.469Z,98457.70
2023-03-06T22:00:43.785Z,98455.55
2023-03-06T22:03:18.368Z,98451.08
2023-03-06T22:06:12.661Z,98449.62
2023-03-06T22:09:05.350Z,98446.50
2023-03-06T22:11:58.350Z,98442.79
2023-03-06T22:14:50.577Z,98445.27
2023-03-06T22:17:41.699Z,98445.03
2023-03-06T22:20:34.159Z,98448.47
2023-03-06T22:23:26.704Z,98448.98
2023-03-06T22:26:17.535Z,98451.42
2023-03-06T22:29:09.786Z,98447.50
2023-03-06T22:32:02.167Z,98445.58
2023-03-06T22:34:52.909Z,98447.03
2023-03-06T22:37:27.204Z,98445.63
2023-03-06T22:40:14.212Z,98449.80
2023-03-06T22:42:57.394Z,98449.88
2023-03-06T22:45:49.966Z,98451.54
2023-03-06T22:48:40.971Z,98450.01
2023-03-06T22:51:28.097Z,98447.57
2023-03-06T22:54:20.804Z,98448.95
2023-03-06T22:57:13.402Z,98448.32
2023-03-06T22:59:58.692Z,98451.67
2023-03-06T23:02:49.480Z,98452.50
2023-03-06T23:05:44.619Z,98446.59
2023-03-06T23:08:29.685Z,98446.84
2023-03-06T23:11:00.201Z,98448.48
2023-03-06T23:13:50.704Z,98447.66
2023-03-06T23:16:41.805Z,98449.06
2023-03-06T23:19:32.469Z,98448.13
2023-03-06T23:22:23.208Z,98448.38
2023-03-06T23:25:13.970Z,98446.42
2023-03-06T23:28:05.573Z,98447.83
2023-03-06T23:30:51.176Z,98445.48
2023-03-06T23:33:26.153Z,98442.27
2023-03-06T23:36:20.308Z,98440.23
2023-03-06T23:39:14.336Z,98443.86
2023-03-06T23:41:51.508Z,98442.60
2023-03-06T23:44:32.310Z,98443.26
2023-03-06T23:47:24.765Z,98444.02
2023-03-06T23:50:09.567Z,98440.35
2023-03-06T23:52:56.309Z,98442.27
2023-03-06T23:55:43.253Z,98439.62
2023-03-06T23:58:29.318Z,98444.54
